createdAt,value
2017-09-10T00:00:40.055Z,14.00
2017-09-10T00:03:41.416Z,13.90
2017-09-10T00:06:42.768Z,13.90
2017-09-10T00:09:44.121Z,14.00
2017-09-10T00:12:45.494Z,14.00
2017-09-10T00:15:47.527Z,14.00
2017-09-10T00:18:48.874Z,14.00
2017-09-10T00:21:50.499Z,14.00
2017-09-10T00:24:51.831Z,14.00
2017-09-10T00:27:53.935Z,13.90
2017-09-10T00:30:55.267Z,13.80
2017-09-10T00:33:56.710Z,13.70
2017-09-10T00:36:58.021Z,13.60
2017-09-10T00:39:59.401Z,13.80
2017-09-10T00:43:00.756Z,13.90
2017-09-10T00:46:02.127Z,13.90
2017-09-10T00:49:03.639Z,13.90
2017-09-10T00:52:05.770Z,13.90
2017-09-10T00:55:07.190Z,13.80
2017-09-10T00:58:08.563Z,13.80
2017-09-10T01:01:09.944Z,13.80
2017-09-10T01:04:11.292Z,13.70
2017-09-10T01:07:12.693Z,13.60
2017-09-10T01:10:14.091Z,13.60
2017-09-10T01:13:16.240Z,13.70
2017-09-10T01:16:17.567Z,13.70
2017-09-10T01:19:18.934Z,13.60
2017-09-10T01:22:20.320Z,13.40
2017-09-10T01:25:21.732Z,13.40
2017-09-10T01:28:23.065Z,13.40
2017-09-10T01:31:24.405Z,13.60
2017-09-10T01:34:25.705Z,13.60
2017-09-10T01:37:27.043Z,13.60
2017-09-10T01:40:29.084Z,13.40
2017-09-10T01:43:30.430Z,13.30
2017-09-10T01:46:31.873Z,13.40
2017-09-10T01:49:33.186Z,13.30
2017-09-10T01:52:34.531Z,13.50
2017-09-10T01:55:35.825Z,13.50
2017-09-10T01:58:37.143Z,13.40
2017-09-10T02:01:38.427Z,13.20
2017-09-10T02:04:39.730Z,13.20
2017-09-10T02:07:41.010Z,13.10
2017-09-10T02:10:42.286Z,13.20
2017-09-10T02:13:43.576Z,13.20
2017-09-10T02:16:44.902Z,13.20
2017-09-10T02:19:46.214Z,13.30
2017-09-10T02:22:48.252Z,13.10
2017-09-10T02:25:50.455Z,13.10
2017-09-10T02:28:51.750Z,13.00
2017-09-10T02:31:53.078Z,13.20
2017-09-10T02:34:54.387Z,13.30
2017-09-10T02:37:55.741Z,13.30
2017-09-10T02:40:57.767Z,13.30
2017-09-10T02:43:59.093Z,13.20
2017-09-10T02:47:00.394Z,13.20
2017-09-10T02:50:02.442Z,13.20
2017-09-10T02:53:03.823Z,13.20
2017-09-10T02:56:05.162Z,13.30
2017-09-10T02:59:07.340Z,13.20
2017-09-10T03:02:09.372Z,13.30
2017-09-10T03:05:10.871Z,13.20
2017-09-10T03:08:12.155Z,13.10
2017-09-10T03:11:13.480Z,13.20
2017-09-10T03:14:14.758Z,13.10
2017-09-10T03:17:16.114Z,13.20
2017-09-10T03:20:17.417Z,13.10
2017-09-10T03:23:18.727Z,13.10
2017-09-10T03:26:20.112Z,13.20
2017-09-10T03:29:21.454Z,13.20
2017-09-10T03:32:23.672Z,13.20
2017-09-10T03:35:24.982Z,13.20
2017-09-10T03:38:26.304Z,13.00
2017-09-10T03:41:27.563Z,13.00
2017-09-10T03:44:29.634Z,13.00
2017-09-10T03:47:31.653Z,13.00
2017-09-10T03:50:33.006Z,13.00
2017-09-10T03:53:34.486Z,13.00
2017-09-10T03:56:35.815Z,13.20
2017-09-10T03:59:37.927Z,13.20
2017-09-10T04:02:39.971Z,13.20
2017-09-10T04:05:42.044Z,13.20
2017-09-10T04:08:43.339Z,13.10
2017-09-10T04:11:44.664Z,13.30
2017-09-10T04:14:46.672Z,13.20
2017-09-10T04:17:47.995Z,13.20
2017-09-10T04:20:49.432Z,13.10
2017-09-10T04:23:51.516Z,13.10
2017-09-10T04:26:52.990Z,13.10
2017-09-10T04:29:54.247Z,14.20
2017-09-10T04:32:55.563Z,13.10
2017-09-10T04:35:56.846Z,13.10
2017-09-10T04:38:58.186Z,13.10
2017-09-10T04:41:59.491Z,13.10
2017-09-10T04:45:02.501Z,13.10
2017-09-10T04:48:04.599Z,13.00
2017-09-10T04:51:05.926Z,12.40
2017-09-10T04:54:07.671Z,12.90
2017-09-10T04:57:09.042Z,13.00
2017-09-10T05:00:10.367Z,12.90
2017-09-10T05:03:11.704Z,12.90
2017-09-10T05:06:13.795Z,12.90
2017-09-10T05:09:15.114Z,12.90
2017-09-10T05:12:17.170Z,12.90
2017-09-10T05:15:18.546Z,12.90
2017-09-10T05:18:20.898Z,13.00
2017-09-10T05:21:22.223Z,13.00
2017-09-10T05:24:24.315Z,12.70
2017-09-10T05:27:26.338Z,12.80
2017-09-10T05:30:27.699Z,12.80
2017-09-10T05:33:29.063Z,12.80
2017-09-10T05:36:30.433Z,12.80
2017-09-10T05:39:32.481Z,12.80
2017-09-10T05:42:34.563Z,12.80
2017-09-10T05:45:35.991Z,12.70
2017-09-10T05:48:37.302Z,12.90
2017-09-10T05:51:45.483Z,13.00
2017-09-10T05:54:47.530Z,13.00
2017-09-10T05:57:48.841Z,13.10
2017-09-10T06:00:50.121Z,13.10
2017-09-10T06:03:51.444Z,13.10
2017-09-10T06:06:52.744Z,13.00
2017-09-10T06:09:54.046Z,13.00
2017-09-10T06:12:55.301Z,13.00
2017-09-10T06:15:56.613Z,12.90
2017-09-10T06:18:57.887Z,13.00
2017-09-10T06:21:59.182Z,13.00
2017-09-10T06:25:00.477Z,13.10
2017-09-10T06:28:02.494Z,13.20
2017-09-10T06:31:04.017Z,13.10
2017-09-10T06:34:05.285Z,13.20
2017-09-10T06:37:07.320Z,13.10
2017-09-10T06:40:08.554Z,13.10
2017-09-10T06:43:09.842Z,13.00
2017-09-10T06:46:11.843Z,13.00
2017-09-10T06:49:13.103Z,13.00
2017-09-10T06:52:14.658Z,13.00
2017-09-10T06:55:15.954Z,13.10
2017-09-10T06:58:18.041Z,13.20
2017-09-10T07:01:20.053Z,13.10
2017-09-10T07:04:21.325Z,13.10
2017-09-10T07:07:22.587Z,13.10
2017-09-10T07:10:24.621Z,13.20
2017-09-10T07:13:25.882Z,13.20
2017-09-10T07:16:27.945Z,13.30
2017-09-10T07:19:29.342Z,13.30
2017-09-10T07:22:30.597Z,13.30
2017-09-10T07:25:31.885Z,13.30
2017-09-10T07:28:33.153Z,13.30
2017-09-10T07:31:34.441Z,13.40
2017-09-10T07:34:35.681Z,13.40
2017-09-10T07:37:36.942Z,13.50
2017-09-10T07:40:38.191Z,13.60
2017-09-10T07:43:39.501Z,13.60
2017-09-10T07:46:41.635Z,13.70
2017-09-10T07:49:42.870Z,13.70
2017-09-10T07:52:44.399Z,13.80
2017-09-10T07:55:45.698Z,13.90
2017-09-10T07:58:46.950Z,14.00
2017-09-10T08:01:48.217Z,14.00
2017-09-10T08:04:50.234Z,14.10
2017-09-10T08:07:51.486Z,14.00
2017-09-10T08:10:52.761Z,14.10
2017-09-10T08:13:54.046Z,14.20
2017-09-10T08:16:56.038Z,14.20
2017-09-10T08:19:57.444Z,14.20
2017-09-10T08:22:59.415Z,14.30
2017-09-10T08:26:01.454Z,14.30
2017-09-10T08:29:02.734Z,14.30
2017-09-10T08:32:04.750Z,14.20
2017-09-10T08:35:05.983Z,14.10
2017-09-10T08:38:07.289Z,14.20
2017-09-10T08:41:09.317Z,14.20
2017-09-10T08:44:10.614Z,14.20
2017-09-10T08:47:12.624Z,14.20
2017-09-10T08:50:13.894Z,14.20
2017-09-10T08:53:15.149Z,14.20
2017-09-10T08:56:16.447Z,14.20
2017-09-10T08:59:17.905Z,14.20
2017-09-10T09:02:19.155Z,14.20
2017-09-10T09:05:20.493Z,14.20
2017-09-10T09:08:21.755Z,14.30
2017-09-10T09:11:23.046Z,14.40
2017-09-10T09:14:24.357Z,14.50
2017-09-10T09:17:25.634Z,14.50
2017-09-10T09:20:26.874Z,14.50
2017-09-10T09:23:28.176Z,14.50
2017-09-10T09:26:29.410Z,14.60
2017-09-10T09:29:31.423Z,14.70
2017-09-10T09:32:32.737Z,14.70
2017-09-10T09:35:34.795Z,14.90
2017-09-10T09:38:36.802Z,15.10
2017-09-10T09:41:38.042Z,15.10
2017-09-10T09:44:39.454Z,15.30
2017-09-10T09:47:41.438Z,15.30
2017-09-10T09:50:42.746Z,15.30
2017-09-10T09:53:44.059Z,15.60
2017-09-10T09:56:45.361Z,15.70
2017-09-10T09:59:47.373Z,15.70
2017-09-10T10:02:48.661Z,15.70
2017-09-10T10:05:49.922Z,16.00
2017-09-10T10:08:51.942Z,16.80
2017-09-10T10:11:53.171Z,16.80
2017-09-10T10:14:54.463Z,16.80
2017-09-10T10:17:55.748Z,16.70
2017-09-10T10:20:57.194Z,16.60
2017-09-10T10:23:59.263Z,16.30
2017-09-10T10:27:01.313Z,16.70
2017-09-10T10:30:02.639Z,16.80
2017-09-10T10:33:04.022Z,16.90
2017-09-10T10:36:06.025Z,17.00
2017-09-10T10:39:07.294Z,16.90
2017-09-10T10:42:08.594Z,16.70
2017-09-10T10:45:10.598Z,16.40
2017-09-10T10:48:11.917Z,16.40
2017-09-10T10:51:13.218Z,16.80
2017-09-10T10:54:14.498Z,16.90
2017-09-10T10:57:16.529Z,17.40
2017-09-10T11:00:17.817Z,17.40
2017-09-10T11:03:19.131Z,17.60
2017-09-10T11:06:20.530Z,17.80
2017-09-10T11:09:21.768Z,17.90
2017-09-10T11:12:23.771Z,17.10
2017-09-10T11:15:24.998Z,17.10
2017-09-10T11:18:26.301Z,16.90
2017-09-10T11:21:27.569Z,17.30
2017-09-10T11:24:29.594Z,18.10
2017-09-10T11:27:30.826Z,18.00
2017-09-10T11:30:32.118Z,18.00
2017-09-10T11:33:33.513Z,18.20
2017-09-10T11:36:34.778Z,18.20
2017-09-10T11:39:36.070Z,18.30
2017-09-10T11:42:37.333Z,18.00
2017-09-10T11:45:39.358Z,17.60
2017-09-10T11:48:41.394Z,17.20
2017-09-10T11:51:42.656Z,17.20
2017-09-10T11:54:43.930Z,17.10
2017-09-10T11:57:45.942Z,16.80
2017-09-10T12:00:47.213Z,16.80
2017-09-10T12:03:48.467Z,16.80
2017-09-10T12:06:49.772Z,16.80
2017-09-10T12:09:51.813Z,17.60
2017-09-10T12:12:53.091Z,17.40
2017-09-10T12:15:55.067Z,17.60
2017-09-10T12:18:56.323Z,17.60
2017-09-10T12:21:57.546Z,18.10
2017-09-10T12:24:59.590Z,17.90
2017-09-10T12:28:00.843Z,17.90
2017-09-10T12:31:02.105Z,18.30
2017-09-10T12:34:04.075Z,18.40
2017-09-10T12:37:06.092Z,18.20
2017-09-10T12:40:07.469Z,18.10
2017-09-10T12:43:08.741Z,18.00
2017-09-10T12:46:10.765Z,17.60
2017-09-10T12:49:12.026Z,17.70
2017-09-10T12:52:13.282Z,17.50
2017-09-10T12:55:14.602Z,17.40
2017-09-10T12:58:15.854Z,17.30
2017-09-10T13:01:17.105Z,17.10
2017-09-10T13:04:18.394Z,17.00
2017-09-10T13:07:20.406Z,17.00
2017-09-10T13:10:21.704Z,17.00
2017-09-10T13:13:23.747Z,17.10
2017-09-10T13:16:24.982Z,16.80
2017-09-10T13:19:26.270Z,17.50
2017-09-10T13:22:28.276Z,18.30
2017-09-10T13:25:29.589Z,18.30
2017-09-10T13:28:31.586Z,18.60
2017-09-10T13:31:32.905Z,18.60
2017-09-10T13:34:34.911Z,18.80
2017-09-10T13:37:36.241Z,18.90
2017-09-10T13:40:37.661Z,18.70
2017-09-10T13:43:39.662Z,18.50
2017-09-10T13:46:41.085Z,18.40
2017-09-10T13:49:43.085Z,19.10
2017-09-10T13:52:44.400Z,19.00
2017-09-10T13:55:46.454Z,18.90
2017-09-10T13:58:48.504Z,18.70
2017-09-10T14:01:49.791Z,18.70
2017-09-10T14:04:51.795Z,18.20
2017-09-10T14:07:53.074Z,18.20
2017-09-10T14:10:54.371Z,17.70
2017-09-10T14:13:55.651Z,17.30
2017-09-10T14:16:56.921Z,17.70
2017-09-10T14:19:58.221Z,17.50
2017-09-10T14:22:59.551Z,17.40
2017-09-10T14:26:01.035Z,17.40
2017-09-10T14:29:02.330Z,17.70
2017-09-10T14:32:04.383Z,17.60
2017-09-10T14:35:05.675Z,17.60
2017-09-10T14:38:07.021Z,17.70
2017-09-10T14:41:08.309Z,18.00
2017-09-10T14:44:09.650Z,18.20
2017-09-10T14:47:10.938Z,18.40
2017-09-10T14:50:12.998Z,18.10
2017-09-10T14:53:14.311Z,18.00
2017-09-10T14:56:15.670Z,18.00
2017-09-10T14:59:17.057Z,17.90
2017-09-10T15:02:18.378Z,17.90
2017-09-10T15:05:19.816Z,17.70
2017-09-10T15:08:21.131Z,17.60
2017-09-10T15:11:22.482Z,17.60
2017-09-10T15:14:24.574Z,17.70
2017-09-10T15:17:25.882Z,17.70
2017-09-10T15:20:27.915Z,17.50
2017-09-10T15:23:29.194Z,16.90
2017-09-10T15:26:31.231Z,17.50
2017-09-10T15:29:32.539Z,17.50
2017-09-10T15:32:33.844Z,17.40
2017-09-10T15:35:35.144Z,17.30
2017-09-10T15:38:36.395Z,17.20
2017-09-10T15:41:37.647Z,17.30
2017-09-10T15:44:38.930Z,17.40
2017-09-10T15:47:40.199Z,17.30
2017-09-10T15:50:42.623Z,17.20
2017-09-10T15:53:43.921Z,17.10
2017-09-10T15:56:45.226Z,17.10
2017-09-10T15:59:46.535Z,17.10
2017-09-10T16:02:48.589Z,17.10
2017-09-10T16:05:50.574Z,17.10
2017-09-10T16:08:51.874Z,17.10
2017-09-10T16:11:53.095Z,17.10
2017-09-10T16:14:54.382Z,17.10
2017-09-10T16:17:55.846Z,17.00
2017-09-10T16:20:57.110Z,17.00
2017-09-10T16:23:59.142Z,16.90
2017-09-10T16:27:00.394Z,17.00
2017-09-10T16:30:01.691Z,16.90
2017-09-10T16:33:02.951Z,16.90
2017-09-10T16:36:04.245Z,16.90
2017-09-10T16:39:05.803Z,16.80
2017-09-10T16:42:07.087Z,16.70
2017-09-10T16:45:08.399Z,16.70
2017-09-10T16:48:09.669Z,16.70
2017-09-10T16:51:11.699Z,16.70
2017-09-10T16:54:12.954Z,16.70
2017-09-10T16:57:14.274Z,16.70
2017-09-10T17:00:15.561Z,16.70
2017-09-10T17:03:16.838Z,16.60
2017-09-10T17:06:18.869Z,16.60
2017-09-10T17:09:20.137Z,16.50
2017-09-10T17:12:22.163Z,16.70
2017-09-10T17:15:23.434Z,16.80
2017-09-10T17:18:24.706Z,16.70
2017-09-10T17:21:26.785Z,16.70
2017-09-10T17:24:28.815Z,16.60
2017-09-10T17:27:30.043Z,16.60
2017-09-10T17:30:31.348Z,16.50
2017-09-10T17:33:32.618Z,16.50
2017-09-10T17:36:33.913Z,16.50
2017-09-10T17:39:35.158Z,16.40
2017-09-10T17:42:36.391Z,16.40
2017-09-10T17:45:37.662Z,16.30
2017-09-10T17:48:39.671Z,16.30
2017-09-10T17:51:40.979Z,16.20
2017-09-10T17:54:43.035Z,16.20
2017-09-10T17:57:44.434Z,16.10
2017-09-10T18:00:45.786Z,16.20
2017-09-10T18:03:47.089Z,16.10
2017-09-10T18:06:48.354Z,16.20
2017-09-10T18:09:50.401Z,16.20
2017-09-10T18:12:51.687Z,16.10
2017-09-10T18:15:52.963Z,16.00
2017-09-10T18:18:54.285Z,16.00
2017-09-10T18:21:55.623Z,15.90
2017-09-10T18:24:56.986Z,16.00
2017-09-10T18:27:58.308Z,15.90
2017-09-10T18:31:00.422Z,15.80
2017-09-10T18:34:01.736Z,15.80
2017-09-10T18:37:03.775Z,15.80
2017-09-10T18:40:05.079Z,15.80
2017-09-10T18:43:06.407Z,15.80
2017-09-10T18:46:08.435Z,15.80
2017-09-10T18:49:09.748Z,15.80
2017-09-10T18:52:11.165Z,15.80
2017-09-10T18:55:13.177Z,15.60
2017-09-10T18:58:21.582Z,15.60
2017-09-10T19:01:22.900Z,15.60
2017-09-10T19:04:31.982Z,15.50
2017-09-10T19:07:40.360Z,15.50
2017-09-10T19:10:41.675Z,15.50
2017-09-10T19:13:43.083Z,15.50
2017-09-10T19:16:44.372Z,15.40
2017-09-10T19:19:45.695Z,15.40
2017-09-10T19:22:47.002Z,15.50
2017-09-10T19:25:49.035Z,15.40
2017-09-10T19:28:50.338Z,15.40
2017-09-10T19:31:51.644Z,15.40
2017-09-10T19:34:53.725Z,15.40
2017-09-10T19:37:55.803Z,15.40
2017-09-10T19:40:57.222Z,15.40
2017-09-10T19:43:58.491Z,15.40
2017-09-10T19:47:00.558Z,15.30
2017-09-10T19:50:02.555Z,15.30
2017-09-10T19:53:03.842Z,15.30
2017-09-10T19:56:05.128Z,15.40
2017-09-10T19:59:07.155Z,15.20
2017-09-10T20:02:09.175Z,15.30
2017-09-10T20:05:10.501Z,15.30
2017-09-10T20:08:12.502Z,15.30
2017-09-10T20:11:13.794Z,15.30
2017-09-10T20:14:15.082Z,15.20
2017-09-10T20:17:16.424Z,15.20
2017-09-10T20:20:17.738Z,15.10
2017-09-10T20:23:19.049Z,15.10
2017-09-10T20:26:20.323Z,15.10
2017-09-10T20:29:21.613Z,15.10
2017-09-10T20:32:22.855Z,15.10
2017-09-10T20:35:24.902Z,15.00
2017-09-10T20:38:26.338Z,15.00
2017-09-10T20:41:27.610Z,14.90
2017-09-10T20:44:29.831Z,14.90
2017-09-10T20:47:31.096Z,14.80
2017-09-10T20:50:32.566Z,14.80
2017-09-10T20:53:33.841Z,14.80
2017-09-10T20:56:35.846Z,14.90
2017-09-10T20:59:37.142Z,14.90
2017-09-10T21:02:38.540Z,14.80
2017-09-10T21:05:39.794Z,14.80
2017-09-10T21:08:41.062Z,14.80
2017-09-10T21:11:42.379Z,14.80
2017-09-10T21:14:43.643Z,14.80
2017-09-10T21:17:44.922Z,14.80
2017-09-10T21:20:46.198Z,14.80
2017-09-10T21:23:48.212Z,14.80
2017-09-10T21:26:49.518Z,14.70
2017-09-10T21:29:51.734Z,14.80
2017-09-10T21:32:53.018Z,14.80
2017-09-10T21:35:54.337Z,14.80
2017-09-10T21:38:55.571Z,14.70
2017-09-10T21:41:56.821Z,14.70
2017-09-10T21:44:58.146Z,14.80
2017-09-10T21:47:59.431Z,14.70
2017-09-10T21:51:00.706Z,14.70
2017-09-10T21:54:01.986Z,14.80
2017-09-10T21:57:04.204Z,14.70
2017-09-10T22:00:05.493Z,14.70
2017-09-10T22:03:07.542Z,14.80
2017-09-10T22:06:08.866Z,14.80
2017-09-10T22:09:10.127Z,14.80
2017-09-10T22:12:11.418Z,14.80
2017-09-10T22:15:13.473Z,14.80
2017-09-10T22:18:15.498Z,14.80
2017-09-10T22:21:16.930Z,14.80
2017-09-10T22:24:18.178Z,14.80
2017-09-10T22:27:19.458Z,14.80
2017-09-10T22:30:20.714Z,14.30
2017-09-10T22:33:51.530Z,14.80
2017-09-10T22:36:52.770Z,14.00
2017-09-10T22:39:54.070Z,14.80
2017-09-10T22:42:56.099Z,14.80
2017-09-10T22:45:57.409Z,14.80
2017-09-10T22:48:58.727Z,14.80
2017-09-10T22:52:00.014Z,14.80
2017-09-10T22:55:01.246Z,14.80
2017-09-10T22:58:02.550Z,14.70
2017-09-10T23:01:03.976Z,14.70
2017-09-10T23:04:05.218Z,14.70
2017-09-10T23:07:06.522Z,14.80
2017-09-10T23:10:08.533Z,14.70
2017-09-10T23:13:10.163Z,14.70
2017-09-10T23:16:12.167Z,14.80
2017-09-10T23:19:13.438Z,14.70
2017-09-10T23:22:15.647Z,14.70
2017-09-10T23:25:17.639Z,14.70
2017-09-10T23:28:18.893Z,14.70
2017-09-10T23:31:20.154Z,14.50
2017-09-10T23:34:21.387Z,14.50
2017-09-10T23:37:22.677Z,14.50
2017-09-10T23:40:23.981Z,14.50
2017-09-10T23:43:25.267Z,14.50
2017-09-10T23:46:27.256Z,14.40
2017-09-10T23:49:28.550Z,14.40
2017-09-10T23:52:29.942Z,14.40
2017-09-10T23:55:31.238Z,14.40
2017-09-10T23:58:32.538Z,14.50
